Time;durP1;ratioP1;P1;durP2;ratioP2;P2;SDS_P1;SDS_P2;PMS_P1;PMS_P2;Temp;Humidity;BMP_temperature;BMP_pressure;BME280_temperature;BME280_humidity;BME280_pressure;Samples;Min_cycle;Max_cycle;Signal;HPM_P1;HPM_P2
2023/11/16 00:01:10;;;;;;;12.45;3.80;;;11.10;99.90;;;10.55;100.00;101199.63;4213278;28;20024;-71
2023/11/16 00:03:12;;;;;;;15.50;5.00;;;11.10;99.90;;;10.57;100.00;101205.59;4200926;28;20025;-70
2023/11/16 00:05:15;;;;;;;14.77;3.88;;;11.20;99.90;;;10.55;100.00;101199.63;4187827;28;20021;-71
2023/11/16 00:07:16;;;;;;;14.32;4.40;;;11.10;99.90;;;10.57;100.00;101178.41;4186661;28;20037;-71
2023/11/16 00:09:17;;;;;;;20.58;7.13;;;11.20;99.90;;;10.56;100.00;101171.47;4187454;28;20107;-70
2023/11/16 00:11:19;;;;;;;11.27;3.95;;;11.20;99.90;;;10.60;100.00;101175.47;4187777;28;20527;-70
2023/11/16 00:13:20;;;;;;;20.20;5.93;;;11.20;99.90;;;10.62;100.00;101172.69;4187274;28;20029;-71
2023/11/16 00:15:21;;;;;;;10.80;4.63;;;11.20;99.90;;;10.65;100.00;101185.59;4187360;28;20058;-71
2023/11/16 00:17:22;;;;;;;15.13;5.80;;;11.20;99.90;;;10.62;100.00;101162.13;4187550;28;20020;-71
2023/11/16 00:19:23;;;;;;;12.65;5.80;;;11.20;99.90;;;10.65;100.00;101164.47;4190685;28;20020;-71
2023/11/16 00:21:24;;;;;;;12.02;4.10;;;11.20;99.90;;;10.68;100.00;101164.19;4203396;28;20030;-71
2023/11/16 00:23:25;;;;;;;16.48;4.97;;;11.20;99.90;;;10.68;100.00;101149.19;4202583;28;20020;-71
2023/11/16 00:25:26;;;;;;;14.80;5.45;;;11.20;99.90;;;10.68;100.00;101132.53;4203865;28;20017;-71
2023/11/16 00:27:27;;;;;;;14.35;5.10;;;11.20;99.90;;;10.67;100.00;101129.06;4203666;28;20055;-71
2023/11/16 00:29:28;;;;;;;15.15;4.70;;;11.30;99.90;;;10.70;100.00;101130.56;4203722;28;20051;-71
2023/11/16 00:31:30;;;;;;;13.55;5.20;;;11.30;99.90;;;10.66;100.00;101124.78;4203687;28;20033;-71
2023/11/16 00:33:33;;;;;;;14.75;4.43;;;11.30;99.90;;;10.70;100.00;101125.28;4198050;28;20036;-71
2023/11/16 00:35:33;;;;;;;24.65;5.55;;;11.30;99.90;;;10.66;100.00;101124.78;4187664;28;20499;-71
2023/11/16 00:37:34;;;;;;;12.38;4.95;;;11.30;99.90;;;10.66;100.00;101130.03;4187214;28;20021;-70
2023/11/16 00:39:36;;;;;;;14.05;5.13;;;11.30;99.90;;;10.69;100.00;101144.75;4204771;28;20062;-71
2023/11/16 00:41:37;;;;;;;10.05;4.65;;;11.30;99.90;;;10.69;100.00;101140.31;4190893;28;20091;-71
2023/11/16 00:43:39;;;;;;;14.02;4.82;;;11.30;99.90;;;10.68;100.00;101143.06;4186694;28;20037;-71
2023/11/16 00:45:41;;;;;;;15.15;4.43;;;11.20;99.90;;;10.68;100.00;101140.44;4187052;28;20052;-71
2023/11/16 00:47:42;;;;;;;14.23;4.78;;;11.30;99.90;;;10.65;100.00;101138.09;4187114;28;20029;-70
2023/11/16 00:49:42;;;;;;;11.98;3.63;;;11.20;99.90;;;10.68;100.00;101151.81;4186792;28;20590;-71
2023/11/16 00:51:44;;;;;;;13.85;4.32;;;11.20;99.90;;;10.68;100.00;101146.56;4186776;28;20033;-70
2023/11/16 00:53:46;;;;;;;16.42;4.35;;;11.30;99.90;;;10.66;100.00;101145.88;4197421;28;20027;-71
2023/11/16 00:55:49;;;;;;;15.40;3.50;;;11.30;99.90;;;10.67;100.00;101144.88;4194156;28;20113;-71
2023/11/16 00:57:51;;;;;;;13.75;4.05;;;11.30;99.90;;;10.68;100.00;101136.00;4186627;28;20021;-70
2023/11/16 00:59:52;;;;;;;12.13;3.60;;;11.30;99.90;;;10.70;100.00;101131.41;4186064;28;20028;-71
2023/11/16 01:01:56;;;;;;;10.30;2.88;;;11.30;99.90;;;10.68;100.00;101121.97;4186894;28;20021;-71
2023/11/16 01:03:57;;;;;;;12.55;3.08;;;11.30;99.90;;;10.68;100.00;101117.53;4186879;28;20025;-70
2023/11/16 01:05:58;;;;;;;10.35;2.55;;;11.20;99.90;;;10.68;100.00;101122.81;4186680;28;20571;-71
2023/11/16 01:07:59;;;;;;;20.67;2.95;;;11.30;99.90;;;10.69;100.00;101111.28;4186539;28;20113;-71
2023/11/16 01:10:03;;;;;;;14.35;2.92;;;11.30;99.90;;;10.68;100.00;101099.06;4186746;28;20029;-71
2023/11/16 01:12:11;;;;;;;13.90;2.83;;;11.30;99.90;;;10.65;100.00;101072.97;4204573;28;20081;-71
2023/11/16 01:14:16;;;;;;;12.50;2.85;;;11.30;99.90;;;10.68;100.00;101070.03;4202532;28;20423;-71
2023/11/16 01:16:17;;;;;;;12.00;2.40;;;11.30;99.90;;;10.67;100.00;101049.91;4203362;28;20396;-71
2023/11/16 01:18:18;;;;;;;16.60;3.75;;;11.30;99.90;;;10.67;100.00;101042.00;4202962;28;20023;-71
2023/11/16 01:20:22;;;;;;;20.00;4.63;;;11.20;99.90;;;10.68;100.00;101033.09;4202979;28;20028;-71
2023/11/16 01:22:26;;;;;;;10.32;2.40;;;11.30;99.90;;;10.62;100.00;101009.97;4201097;28;20057;-71
2023/11/16 01:24:34;;;;;;;;;;;11.20;99.90;;;10.60;100.00;101014.56;4198295;28;20048;-71
2023/11/16 01:26:39;;;;;;;12.88;2.90;;;11.30;99.90;;;10.65;100.00;101017.56;4192242;28;19909;-71
2023/11/16 01:28:58;;;;;;;13.25;2.67;;;11.30;99.90;;;10.62;100.00;101003.84;4184958;28;20061;-71
2023/11/16 01:31:03;;;;;;;14.23;2.40;;;11.30;99.90;;;10.66;100.00;100998.13;4190636;28;20047;-71
2023/11/16 01:33:07;;;;;;;14.35;3.42;;;11.20;99.90;;;10.64;100.00;100993.97;4201417;28;20048;-71
2023/11/16 01:35:10;;;;;;;13.45;3.20;;;11.30;99.90;;;10.67;100.00;100983.94;4192669;28;20080;-71
2023/11/16 01:37:11;;;;;;;9.05;2.67;;;11.20;99.90;;;10.62;100.00;100969.56;4186354;28;20017;-71
2023/11/16 01:39:14;;;;;;;12.88;2.50;;;11.30;99.90;;;10.67;100.00;100973.38;4197869;28;20028;-71
2023/11/16 01:41:16;;;;;;;6.25;1.90;;;11.30;99.90;;;10.67;100.00;100956.72;4192824;28;20107;-70
2023/11/16 01:43:17;;;;;;;8.93;2.00;;;11.30;99.90;;;10.66;100.00;100939.25;4208882;28;20487;-71
2023/11/16 01:45:38;;;;;;;14.48;2.50;;;11.30;99.90;;;10.66;100.00;100920.78;4198805;28;20048;-71
2023/11/16 01:47:40;;;;;;;10.48;2.17;;;11.30;99.90;;;10.66;100.00;100915.50;4192247;28;20485;-71
2023/11/16 01:49:43;;;;;;;13.25;2.85;;;11.30;99.90;;;10.68;100.00;100922.28;4198586;28;20107;-71
2023/11/16 01:51:46;;;;;;;9.52;2.60;;;11.30;99.90;;;10.71;100.00;100916.72;4202560;28;20036;-71
2023/11/16 01:53:56;;;;;;;11.23;2.63;;;11.30;99.90;;;10.73;100.00;100919.19;4202702;28;20394;-71
2023/11/16 01:55:57;;;;;;;14.13;3.17;;;11.30;99.90;;;10.72;100.00;100921.00;4201239;28;20500;-71
2023/11/16 01:58:04;;;;;;;14.05;2.55;;;11.30;99.90;;;10.73;100.00;100906.81;4202139;28;20078;-71
2023/11/16 02:00:06;;;;;;;9.77;2.47;;;11.30;99.90;;;10.73;100.00;100884.88;4201365;28;20039;-71
2023/11/16 02:02:10;;;;;;;9.45;2.40;;;11.30;99.90;;;10.74;100.00;100874.19;4184502;28;20496;-70
2023/11/16 02:04:10;;;;;;;10.77;2.38;;;11.30;99.90;;;10.75;100.00;100873.19;4197728;28;20020;-70
2023/11/16 02:06:12;;;;;;;19.83;3.03;;;11.30;99.90;;;10.75;100.00;100886.38;4202106;28;20506;-71
2023/11/16 02:08:13;;;;;;;18.35;3.80;;;11.40;99.90;;;10.75;100.00;100875.03;4201378;28;20025;-70
2023/11/16 02:10:14;;;;;;;14.30;3.25;;;11.30;99.90;;;10.71;100.00;100863.94;4202254;28;20028;-71
2023/11/16 02:12:15;;;;;;;14.32;2.97;;;11.30;99.90;;;10.73;100.00;100856.69;4201318;28;20024;-71
2023/11/16 02:14:16;;;;;;;9.13;2.10;;;11.30;99.90;;;10.74;100.00;100849.63;4183862;28;20029;-71
2023/11/16 02:16:17;;;;;;;14.20;3.40;;;11.30;99.90;;;10.69;100.00;100839.53;4202205;28;20027;-70
2023/11/16 02:18:17;;;;;;;16.00;3.28;;;11.30;99.90;;;10.74;100.00;100837.25;4202203;28;20033;-71
2023/11/16 02:20:25;;;;;;;9.85;3.25;;;11.30;99.90;;;10.73;100.00;100825.03;4202001;28;20028;-71
2023/11/16 02:22:29;;;;;;;13.43;3.35;;;11.30;99.90;;;10.73;100.00;100803.94;4200720;28;20087;-71
2023/11/16 02:24:30;;;;;;;13.40;2.45;;;11.30;99.90;;;10.76;100.00;100793.06;4200976;28;20016;-71
2023/11/16 02:26:33;;;;;;;11.13;2.20;;;11.30;99.90;;;10.69;100.00;100767.47;4193986;28;20037;-71
2023/11/16 02:28:34;;;;;;;6.90;2.42;;;11.30;99.90;;;10.72;100.00;100757.41;4185268;28;20025;-71
2023/11/16 02:30:35;;;;;;;9.68;2.65;;;11.30;99.90;;;10.71;100.00;100757.59;4185293;28;20039;-70
2023/11/16 02:32:36;;;;;;;7.63;2.10;;;11.30;99.90;;;10.68;100.00;100737.63;4185198;28;20045;-71
2023/11/16 02:34:37;;;;;;;14.52;2.53;;;11.30;99.90;;;10.70;100.00;100722.44;4197861;28;20079;-70
2023/11/16 02:36:38;;;;;;;15.88;2.50;;;11.30;99.90;;;10.68;100.00;100711.25;4188974;28;20025;-70
2023/11/16 02:38:39;;;;;;;11.88;2.88;;;11.30;99.90;;;10.80;100.00;100709.97;4185371;28;20032;-70
2023/11/16 02:40:41;;;;;;;15.52;2.35;;;11.30;99.90;;;10.74;100.00;100707.16;4185382;28;20017;-71
2023/11/16 02:42:43;;;;;;;9.80;2.40;;;11.30;99.90;;;10.68;100.00;100695.41;4185273;28;20064;-71
2023/11/16 02:44:44;;;;;;;8.35;2.20;;;11.20;99.90;;;10.63;100.00;100670.50;4201064;28;20111;-71
2023/11/16 02:46:45;;;;;;;9.13;2.05;;;11.20;99.90;;;10.61;100.00;100652.19;4186850;28;20029;-71
2023/11/16 02:48:46;;;;;;;11.98;2.10;;;11.20;99.90;;;10.60;100.00;100642.63;4193013;28;20057;-71
2023/11/16 02:50:47;;;;;;;9.88;2.17;;;11.20;99.90;;;10.60;100.00;100650.53;4217183;28;20073;-70
2023/11/16 02:52:50;;;;;;;10.63;3.30;;;11.20;99.90;;;10.60;100.00;100645.25;4189585;28;20025;-70
2023/11/16 02:54:51;;;;;;;7.53;1.92;;;11.20;99.90;;;10.57;100.00;100626.28;4197487;28;20076;-70
2023/11/16 02:56:53;;;;;;;8.38;2.28;;;11.20;99.90;;;10.58;100.00;100623.47;4188624;28;20025;-71
2023/11/16 02:58:53;;;;;;;12.05;2.80;;;11.20;99.90;;;10.60;100.00;100603.06;4201715;28;20082;-71
2023/11/16 03:00:54;;;;;;;5.97;1.73;;;11.20;99.90;;;10.63;100.00;100604.56;4201749;28;20016;-71
2023/11/16 03:02:55;;;;;;;10.98;3.05;;;11.20;99.90;;;10.62;100.00;100590.53;4184032;28;20063;-70
2023/11/16 03:04:56;;;;;;;10.90;2.38;;;11.20;99.90;;;10.62;100.00;100579.16;4188555;28;20025;-70
2023/11/16 03:06:57;;;;;;;10.77;2.25;;;11.20;99.90;;;10.61;100.00;100577.47;4185128;28;20404;-71
2023/11/16 03:08:58;;;;;;;14.88;3.33;;;11.20;99.90;;;10.65;100.00;100574.38;4188069;28;20029;-71
2023/11/16 03:11:02;;;;;;;9.15;1.67;;;11.20;99.90;;;10.61;100.00;100545.84;4187890;28;20056;-71
2023/11/16 03:13:03;;;;;;;17.58;3.08;;;11.20;99.90;;;10.63;100.00;100542.06;4184920;28;20032;-70
2023/11/16 03:15:06;;;;;;;14.57;2.38;;;11.20;99.90;;;10.60;100.00;100545.03;4185987;28;20033;-70
2023/11/16 03:17:07;;;;;;;8.35;1.90;;;11.20;99.90;;;10.62;100.00;100537.78;4185047;28;20024;-71
2023/11/16 03:19:09;;;;;;;5.55;1.58;;;11.20;99.90;;;10.64;100.00;100503.31;4185877;28;20086;-70
2023/11/16 03:21:09;;;;;;;9.15;2.05;;;11.20;99.90;;;10.61;100.00;100509.72;4201581;28;20025;-71
2023/11/16 03:23:10;;;;;;;8.48;1.98;;;11.20;99.90;;;10.58;100.00;100507.41;4201661;28;20024;-70
2023/11/16 03:25:12;;;;;;;9.32;2.38;;;11.20;99.90;;;10.62;100.00;100502.66;4201449;28;20020;-71
2023/11/16 03:27:13;;;;;;;9.82;1.48;;;11.20;99.90;;;10.59;100.00;100493.25;4188699;28;20475;-71
2023/11/16 03:29:15;;;;;;;8.18;2.30;;;11.20;99.90;;;10.58;100.00;100491.59;4188028;28;20025;-70
2023/11/16 03:31:15;;;;;;;14.25;2.10;;;11.20;99.90;;;10.59;100.00;100480.06;4202420;28;20472;-70
2023/11/16 03:33:16;;;;;;;9.82;2.55;;;11.20;99.90;;;10.54;100.00;100464.72;4197916;28;20084;-71
2023/11/16 03:35:17;;;;;;;9.50;1.73;;;11.10;99.90;;;10.57;100.00;100477.56;4199287;28;20028;-70
2023/11/16 03:37:19;;;;;;;15.15;2.63;;;11.10;99.90;;;10.54;100.00;100470.00;4188149;28;20231;-70
2023/11/16 03:39:20;;;;;;;10.30;2.25;;;11.10;99.90;;;10.59;100.00;100469.53;4201608;28;20110;-70
2023/11/16 03:41:21;;;;;;;10.23;2.10;;;11.10;99.90;;;10.56;100.00;100454.03;4194113;28;20025;-70
2023/11/16 03:43:23;;;;;;;10.63;2.47;;;11.10;99.90;;;10.53;100.00;100454.34;4214394;28;20522;-70
2023/11/16 03:45:23;;;;;;;8.65;2.45;;;11.10;99.90;;;10.52;100.00;100432.41;4200686;28;20155;-71
2023/11/16 03:47:24;;;;;;;10.55;2.38;;;11.10;99.90;;;10.53;100.00;100427.97;4188105;28;20036;-71
2023/11/16 03:49:25;;;;;;;5.57;1.55;;;11.10;99.90;;;10.55;100.00;100425.97;4187758;28;20029;-71
2023/11/16 03:51:29;;;;;;;7.30;1.67;;;11.10;99.90;;;10.56;100.00;100419.72;4187946;28;20050;-71
2023/11/16 03:53:31;;;;;;;11.07;2.33;;;11.10;99.90;;;10.54;100.00;100414.59;4187831;28;20049;-70
2023/11/16 03:55:32;;;;;;;8.82;1.80;;;11.10;99.90;;;10.55;100.00;100399.59;4197785;28;20032;-70
2023/11/16 03:57:34;;;;;;;8.43;2.22;;;11.20;99.90;;;10.59;100.00;100379.00;4202926;28;20021;-70
2023/11/16 03:59:35;;;;;;;12.00;2.38;;;11.10;99.90;;;10.59;100.00;100371.94;4189499;28;20028;-70
2023/11/16 04:01:37;;;;;;;8.18;2.40;;;11.20;99.90;;;10.65;100.00;100366.00;4191132;28;20023;-70
2023/11/16 04:03:38;;;;;;;8.75;1.80;;;11.20;99.90;;;10.62;100.00;100353.13;4196376;28;20487;-71
2023/11/16 04:05:39;;;;;;;5.25;1.90;;;11.20;99.90;;;10.57;100.00;100335.16;4190782;28;20029;-71
2023/11/16 04:07:39;;;;;;;9.27;2.00;;;11.20;99.90;;;10.60;100.00;100318.19;4183387;28;20492;-70
2023/11/16 04:09:40;;;;;;;8.02;2.55;;;11.20;99.90;;;10.62;100.00;100316.22;4188308;28;20508;-71
2023/11/16 04:11:44;;;;;;;7.88;1.70;;;11.20;99.90;;;10.65;100.00;100326.44;4187599;28;20060;-70
2023/11/16 04:13:48;;;;;;;7.13;1.73;;;11.20;99.90;;;10.59;100.00;100332.38;4196754;28;20032;-71
2023/11/16 04:15:52;;;;;;;7.60;1.90;;;11.20;99.90;;;10.59;100.00;100335.00;4202997;28;20071;-70
2023/11/16 04:17:54;;;;;;;6.07;1.48;;;11.20;99.90;;;10.64;100.00;100334.50;4186637;28;20021;-70
2023/11/16 04:19:55;;;;;;;6.65;1.50;;;11.20;99.90;;;10.63;100.00;100309.97;4194069;28;20438;-70
2023/11/16 04:21:58;;;;;;;7.28;1.77;;;11.20;99.90;;;10.67;100.00;100316.53;4193141;28;20029;-70
2023/11/16 04:23:59;;;;;;;3.97;1.58;;;11.20;99.90;;;10.66;100.00;100295.59;4187220;28;20070;-70
2023/11/16 04:26:00;;;;;;;7.40;1.67;;;11.20;99.90;;;10.67;100.00;100290.16;4197939;28;20438;-71
2023/11/16 04:28:02;;;;;;;4.45;1.65;;;11.20;99.90;;;10.69;100.00;100304.00;4187099;28;20029;-71
2023/11/16 04:30:06;;;;;;;3.00;1.17;;;11.20;99.90;;;10.71;100.00;100277.44;4196715;28;20507;-70
2023/11/16 04:32:07;;;;;;;4.15;1.20;;;11.20;99.90;;;10.68;100.00;100291.81;4189190;28;20500;-71
2023/11/16 04:34:08;;;;;;;5.13;1.13;;;11.20;99.90;;;10.71;100.00;100293.28;4201954;28;20036;-71
2023/11/16 04:36:13;;;;;;;5.25;1.20;;;11.30;99.90;;;10.69;100.00;100282.91;4195898;28;20033;-71
2023/11/16 04:38:14;;;;;;;4.25;1.10;;;11.30;99.90;;;10.71;100.00;100273.00;4208488;28;20031;-71
2023/11/16 04:40:15;;;;;;;5.38;1.13;;;11.30;99.90;;;10.75;100.00;100237.34;4219299;28;20020;-70
2023/11/16 04:42:16;;;;;;;3.95;1.15;;;11.30;99.90;;;10.76;100.00;100198.63;4199379;28;20035;-71
2023/11/16 04:44:17;;;;;;;4.20;1.00;;;11.30;99.90;;;10.77;100.00;100165.97;4200866;28;20046;-70
2023/11/16 04:46:18;;;;;;;3.00;1.15;;;11.30;99.90;;;10.78;100.00;100175.56;4191629;28;20029;-71
2023/11/16 04:48:20;;;;;;;1.10;0.57;;;11.30;99.90;;;10.82;100.00;100175.03;4202368;28;20028;-70
2023/11/16 04:50:22;;;;;;;3.63;0.90;;;11.40;99.90;;;10.86;100.00;100186.88;4190940;28;20027;-71
2023/11/16 04:52:23;;;;;;;4.45;0.80;;;11.40;99.90;;;10.87;100.00;100188.50;4202578;28;20495;-70
2023/11/16 04:54:26;;;;;;;4.10;1.40;;;11.40;99.90;;;10.90;100.00;100182.88;4202232;28;20025;-71
2023/11/16 04:56:27;;;;;;;2.67;0.70;;;11.50;99.90;;;10.91;100.00;100187.19;4187671;28;20032;-71
2023/11/16 04:58:28;;;;;;;2.55;0.65;;;11.50;99.90;;;10.93;100.00;100172.00;4189752;28;20029;-71
2023/11/16 05:00:29;;;;;;;2.20;0.80;;;11.50;99.90;;;10.99;100.00;100173.94;4185327;28;20021;-71
2023/11/16 05:02:29;;;;;;;1.58;0.47;;;11.50;99.90;;;10.95;100.00;100158.66;4208123;28;20036;-70
2023/11/16 05:04:31;;;;;;;1.95;0.60;;;11.60;99.90;;;11.02;100.00;100163.03;4198714;28;20024;-71
2023/11/16 05:06:32;;;;;;;3.63;0.80;;;11.60;99.90;;;11.07;100.00;100188.94;4189632;28;20042;-71
2023/11/16 05:08:33;;;;;;;3.97;0.73;;;11.60;99.90;;;11.09;100.00;100171.94;4186724;28;20029;-70
2023/11/16 05:10:34;;;;;;;1.20;0.80;;;11.60;99.90;;;11.13;100.00;100150.47;4186609;28;20029;-70
2023/11/16 05:12:34;;;;;;;2.20;0.60;;;11.60;99.90;;;11.15;100.00;100146.66;4212227;28;20521;-71
2023/11/16 05:14:35;;;;;;;1.95;0.88;;;11.70;99.90;;;11.31;100.00;100138.63;4201922;28;20021;-71
2023/11/16 05:16:36;;;;;;;8.65;1.60;;;11.80;99.90;;;11.51;100.00;100138.97;4195208;28;20020;-71
2023/11/16 05:18:38;;;;;;;8.77;1.48;;;11.90;99.90;;;11.87;100.00;100129.47;4186623;28;20114;-71
2023/11/16 05:20:40;;;;;;;11.63;3.85;;;12.20;99.90;;;12.28;100.00;100113.19;4200149;28;20511;-71
2023/11/16 05:22:41;;;;;;;12.10;2.95;;;12.50;99.90;;;12.68;100.00;100107.44;4202039;28;20016;-71
2023/11/16 05:24:43;;;;;;;15.27;3.28;;;12.90;99.90;;;12.87;100.00;100096.28;4203133;28;20039;-70
2023/11/16 05:26:44;;;;;;;18.45;3.08;;;13.20;99.90;;;13.12;100.00;100092.28;4191107;28;20017;-70
2023/11/16 05:28:45;;;;;;;25.17;4.15;;;13.40;99.90;;;13.27;100.00;100089.56;4185998;28;20036;-71
2023/11/16 05:30:48;;;;;;;29.10;4.80;;;13.60;99.90;;;13.32;100.00;100085.34;4186395;28;20020;-71
2023/11/16 05:32:50;;;;;;;32.40;5.57;;;13.70;99.90;;;13.52;100.00;100087.38;4187359;28;20136;-71
2023/11/16 05:34:51;;;;;;;35.97;6.47;;;13.80;99.90;;;13.60;100.00;100079.28;4196125;28;20020;-71
2023/11/16 05:36:52;;;;;;;39.20;5.80;;;14.00;99.90;;;13.60;100.00;100055.41;4188067;28;20027;-71
2023/11/16 05:38:53;;;;;;;48.80;6.05;;;14.00;99.90;;;13.66;100.00;100052.81;4188566;28;20028;-71
2023/11/16 05:40:54;;;;;;;42.72;6.25;;;14.10;99.90;;;13.66;100.00;100021.03;4193004;28;20033;-71
2023/11/16 05:42:55;;;;;;;39.50;7.32;;;14.20;99.90;;;13.74;100.00;100014.75;4202707;28;20510;-71
2023/11/16 05:44:55;;;;;;;41.08;7.10;;;14.20;99.90;;;13.74;100.00;100009.44;4202454;28;20024;-71
2023/11/16 05:46:56;;;;;;;38.90;6.05;;;14.20;99.90;;;13.75;100.00;99997.84;4186111;28;20404;-70
2023/11/16 05:48:57;;;;;;;36.53;6.13;;;14.20;99.90;;;13.72;100.00;99980.50;4197166;28;20491;-71
2023/11/16 05:50:58;;;;;;;39.42;7.00;;;14.20;99.90;;;13.74;100.00;99972.34;4201287;28;20074;-71
2023/11/16 05:52:59;;;;;;;31.45;6.18;;;14.10;99.90;;;13.69;100.00;99961.50;4189909;28;20033;-71
2023/11/16 05:55:00;;;;;;;37.00;6.97;;;14.10;99.90;;;13.71;100.00;99954.16;4188179;28;20021;-71
2023/11/16 05:57:00;;;;;;;41.35;6.15;;;14.10;99.90;;;13.69;100.00;99932.34;4185925;28;20033;-70
2023/11/16 05:59:01;;;;;;;36.30;7.05;;;14.10;99.90;;;13.63;100.00;99919.88;4184391;28;20013;-71
2023/11/16 06:01:02;;;;;;;32.00;6.35;;;14.10;99.90;;;13.66;100.00;99900.94;4184603;28;20033;-71
2023/11/16 06:03:04;;;;;;;39.95;7.03;;;14.10;99.90;;;13.62;100.00;99889.13;4183434;28;20033;-70
2023/11/16 06:05:06;;;;;;;33.90;6.45;;;14.10;99.90;;;13.66;100.00;99919.50;4173903;28;20056;-71
2023/11/16 06:07:07;;;;;;;36.40;6.95;;;14.10;99.90;;;13.66;100.00;99940.69;4175356;28;20091;-71
2023/11/16 06:09:09;;;;;;;32.13;6.10;;;14.20;99.90;;;13.65;100.00;99949.69;4184386;28;20443;-70
2023/11/16 06:11:15;;;;;;;41.72;6.70;;;14.10;99.90;;;13.62;100.00;99942.13;4201483;28;20067;-70
2023/11/16 06:13:22;;;;;;;36.17;6.40;;;14.10;99.90;;;13.65;100.00;99942.53;4202157;28;20036;-71
2023/11/16 06:15:25;;;;;;;44.28;8.05;;;14.10;99.90;;;13.64;100.00;99922.34;4202175;28;20083;-72
2023/11/16 06:17:26;;;;;;;37.38;8.05;;;14.10;99.90;;;13.64;100.00;99918.88;4201946;28;20025;-71
2023/11/16 06:19:30;;;;;;;39.20;7.85;;;14.10;99.90;;;13.59;100.00;99905.41;4184034;28;20028;-71
2023/11/16 06:21:31;;;;;;;;;;;14.00;99.90;;;13.50;100.00;99886.16;4202706;28;20029;-71
2023/11/16 06:23:32;;;;;;;35.17;6.75;;;14.00;99.90;;;13.54;100.00;99894.56;4191689;28;20295;-71
2023/11/16 06:25:33;;;;;;;34.70;7.97;;;14.00;99.90;;;13.45;100.00;99880.66;4185316;28;20538;-71
2023/11/16 06:27:34;;;;;;;38.15;6.68;;;13.90;99.90;;;13.45;100.00;99909.78;4184334;28;20017;-70
2023/11/16 06:29:35;;;;;;;32.58;5.65;;;13.90;99.90;;;13.40;100.00;99896.31;4185555;28;20025;-71
2023/11/16 06:31:36;;;;;;;42.40;7.28;;;13.90;99.90;;;13.40;100.00;99903.44;4199359;28;20515;-71
2023/11/16 06:33:37;;;;;;;29.98;5.78;;;13.90;99.90;;;13.32;100.00;99891.16;4200787;28;20025;-71
2023/11/16 06:35:38;;;;;;;35.17;5.82;;;13.90;99.90;;;13.28;100.00;99893.41;4187319;28;20055;-71
2023/11/16 06:37:39;;;;;;;35.08;7.30;;;13.80;99.90;;;13.28;100.00;99861.63;4201125;28;20036;-71
2023/11/16 06:39:40;;;;;;;43.92;8.07;;;13.80;99.90;;;13.24;100.00;99872.78;4191120;28;20027;-71
2023/11/16 06:41:41;;;;;;;41.38;8.32;;;13.80;99.90;;;13.28;100.00;99858.16;4180319;28;20094;-71
2023/11/16 06:43:42;;;;;;;44.95;7.07;;;13.70;99.90;;;13.27;100.00;99849.38;4184894;28;20055;-71
2023/11/16 06:45:44;;;;;;;39.78;6.90;;;13.70;99.90;;;13.21;100.00;99826.31;4187455;28;20159;-71
2023/11/16 06:47:48;;;;;;;44.08;7.45;;;13.70;99.90;;;13.20;100.00;99803.47;4200449;28;20074;-71
2023/11/16 06:49:49;;;;;;;40.58;7.53;;;13.70;99.90;;;13.16;100.00;99802.25;4185154;28;20020;-71
2023/11/16 06:51:50;;;;;;;47.80;7.93;;;13.70;99.90;;;13.15;100.00;99803.25;4170653;28;20100;-71
2023/11/16 06:53:53;;;;;;;50.40;8.13;;;13.70;99.90;;;13.21;100.00;99801.66;4190548;28;20029;-71
2023/11/16 06:55:53;;;;;;;47.38;9.43;;;13.70;99.90;;;13.29;100.00;99793.53;4184996;28;20056;-70
2023/11/16 06:57:54;;;;;;;43.83;7.90;;;13.70;99.90;;;13.26;100.00;99784.16;4197677;28;20021;-71
2023/11/16 06:59:57;;;;;;;38.63;7.25;;;13.80;99.90;;;13.31;100.00;99799.47;4184009;28;20561;-71
2023/11/16 07:01:57;;;;;;;33.35;7.20;;;13.80;99.90;;;13.19;100.00;99767.44;4191871;28;20074;-71
2023/11/16 07:03:58;;;;;;;38.08;8.80;;;13.80;99.90;;;13.26;100.00;99783.38;4201660;28;20029;-70
2023/11/16 07:05:59;;;;;;;51.90;9.35;;;13.80;99.90;;;13.34;100.00;99782.38;4201638;28;20029;-71
2023/11/16 07:08:02;;;;;;;32.95;7.43;;;13.80;99.90;;;13.30;100.00;99769.53;4201634;28;20036;-71
2023/11/16 07:10:04;;;;;;;43.88;8.00;;;13.90;99.90;;;13.34;100.00;99774.44;4183593;28;20052;-70
2023/11/16 07:12:06;;;;;;;48.72;8.45;;;13.90;99.90;;;13.30;100.00;99785.41;4203226;28;20502;-70
2023/11/16 07:14:07;;;;;;;44.88;8.10;;;13.80;99.90;;;13.35;100.00;99782.16;4198936;28;20028;-70
2023/11/16 07:16:08;;;;;;;35.05;7.30;;;13.90;99.90;;;13.33;100.00;99773.59;4192512;28;20037;-70
2023/11/16 07:18:09;;;;;;;44.08;7.80;;;13.90;99.90;;;13.48;100.00;99765.50;4180248;28;20024;-70
2023/11/16 07:20:11;;;;;;;43.88;10.52;;;13.90;99.90;;;13.38;100.00;99797.66;4201459;28;20033;-70
2023/11/16 07:22:12;;;;;;;43.28;9.20;;;13.90;99.90;;;13.43;100.00;99783.84;4200234;28;20125;-71
2023/11/16 07:24:13;;;;;;;37.42;7.80;;;13.90;99.90;;;13.37;100.00;99789.94;4200449;28;20062;-70
2023/11/16 07:26:18;;;;;;;45.65;8.65;;;13.90;99.90;;;13.34;100.00;99806.22;4200189;28;20025;-71
2023/11/16 07:28:19;;;;;;;50.58;9.30;;;13.80;99.90;;;13.24;100.00;99796.78;4201041;28;20036;-70
2023/11/16 07:30:21;;;;;;;46.35;8.38;;;13.80;99.90;;;13.25;100.00;99811.69;4200812;28;20021;-71
2023/11/16 07:32:21;;;;;;;48.75;8.77;;;13.70;99.90;;;13.17;100.00;99788.00;4184606;28;20056;-70
2023/11/16 07:34:23;;;;;;;56.58;10.45;;;13.70;99.90;;;13.19;100.00;99809.81;4204350;28;20024;-70
2023/11/16 07:36:28;;;;;;;42.45;9.13;;;13.70;99.90;;;13.09;100.00;99808.50;4191424;28;20102;-70
2023/11/16 07:38:28;;;;;;;39.75;8.73;;;13.70;99.90;;;12.93;100.00;99803.50;4210160;28;20115;-70
2023/11/16 07:40:29;;;;;;;56.08;8.95;;;13.50;99.90;;;12.81;100.00;99794.47;4192134;28;20107;-71
2023/11/16 07:42:30;;;;;;;43.72;8.73;;;13.40;99.90;;;12.76;100.00;99787.09;4184704;28;20067;-71
2023/11/16 07:44:32;;;;;;;68.25;13.45;;;13.30;99.90;;;12.80;100.00;99814.00;4184790;28;20489;-71
2023/11/16 07:46:33;;;;;;;45.42;9.15;;;13.30;99.90;;;12.69;100.00;99802.13;4209787;28;20510;-71
2023/11/16 07:48:34;;;;;;;53.47;9.57;;;13.20;99.90;;;12.60;100.00;99813.88;4185069;28;20017;-70
2023/11/16 07:50:35;;;;;;;48.90;9.13;;;13.10;99.90;;;12.58;100.00;99839.66;4189674;28;20444;-70
2023/11/16 07:52:47;;;;;;;63.13;12.00;;;13.10;99.90;;;12.47;100.00;99808.44;4184791;28;20017;-71
2023/11/16 07:54:47;;;;;;;59.20;11.35;;;13.00;99.90;;;12.42;100.00;99805.56;4211455;28;20024;-71
2023/11/16 07:57:01;;;;;;;65.90;12.15;;;13.00;99.90;;;12.30;100.00;99792.03;4197420;28;20043;-70
2023/11/16 07:59:02;;;;;;;60.28;10.43;;;12.90;99.90;;;12.32;100.00;99829.69;4199837;28;20078;-71
2023/11/16 08:01:04;;;;;;;65.85;10.30;;;12.80;99.90;;;12.37;100.00;99813.22;4188891;28;20017;-70
2023/11/16 08:05:26;;;;;;;62.03;9.60;;;12.80;99.90;;;12.39;100.00;99813.88;4184612;28;20036;-70
2023/11/16 08:07:27;;;;;;;59.13;9.13;;;12.80;99.90;;;12.33;100.00;99826.03;4207156;28;20064;-70
2023/11/16 08:09:29;;;;;;;69.80;11.00;;;12.80;99.90;;;12.36;100.00;99833.59;4187330;28;20031;-70
2023/11/16 08:11:31;;;;;;;60.58;10.15;;;12.80;99.90;;;12.36;100.00;99848.66;4198675;28;20473;-70
2023/11/16 08:13:34;;;;;;;63.50;11.25;;;12.80;99.90;;;12.37;100.00;99818.53;4187307;28;20021;-71
2023/11/16 08:15:35;;;;;;;51.30;8.73;;;12.80;99.90;;;12.44;100.00;99827.34;4187684;28;20037;-70
2023/11/16 08:17:37;;;;;;;61.20;12.73;;;12.80;99.90;;;12.42;100.00;99842.59;4206237;28;20028;-70
2023/11/16 08:19:38;;;;;;;67.25;11.52;;;12.80;99.90;;;12.47;100.00;99851.59;4199889;28;21203;-70
2023/11/16 08:21:41;;;;;;;81.15;12.80;;;12.80;99.90;;;12.46;100.00;99838.53;4185844;28;20021;-71